Flight Track Log - Related Links

Times and Time Zones

All times are in EDT time to prevent confusion due to time zone crossing. See the RPA3253 flight status page for this flight to view local times or setup timezone preferences in your user account.

Time Position Orientation Groundspeed Altitude Reporting Facility
EDT Latitude Longitude Course Direction KTS MPH feet Rate Location/Type
Sun 07:36:19 PM 42.7503 -73.8283 218° Southwest 147 169 1,200  Level Boston Center
Sun 07:36:44 PM 42.7500 -73.8508 269° West 145 167 1,900 1,482 Climbing Boston Center
Sun 07:37:44 PM 42.7469 -73.9328 267° West 230 265 3,300 1,707 Climbing Boston Center
Sun 07:38:47 PM 42.7436 -74.0347 267° West 265 305 5,400 2,222 Climbing Boston Center
Sun 07:39:00 PM 42.1412 -74.4570 219° Southwest  Level Estimated
Sun 07:39:59 PM 42.7358 -74.1389 264° West 270 311 8,300  Level Boston Center
Sun 07:40:00 PM 42.0703 -74.5324 218° Southwest  Level Estimated
Sun 07:40:59 PM 42.7131 -74.2542 255° West 270 311 11,500  Level Boston Center
Sun 07:41:00 PM 41.9993 -74.6076 218° Southwest  Level Estimated
Sun 07:41:59 PM 42.6403 -74.2408 172° South 217 250 13,300  Level Boston Center
Sun 07:42:59 PM 42.5517 -74.1789 153° Southeast 277 319 15,200 1,800 Climbing Boston Center
Sun 07:43:59 PM 42.4733 -74.1206 151° Southeast 336 387 16,900 1,650 Climbing Boston Center
Sun 07:44:59 PM 42.3828 -74.0506 150° Southeast 353 406 18,500 1,500 Climbing Boston Center
Sun 07:45:59 PM 42.2961 -73.9894 152° Southeast 353 406 19,900 1,450 Climbing Boston Center
Sun 07:46:59 PM 42.2053 -73.9228 151° Southeast 348 400 21,400 1,450 Climbing Boston Center
Sun 07:47:59 PM 42.1225 -73.8619 151° Southeast 366 421 22,800 1,450 Climbing Boston Center
Sun 07:48:59 PM 42.0297 -73.7928 151° Southeast 377 434 24,300 1,318 Climbing Boston Center
Sun 07:50:11 PM 41.9367 -73.7322 154° Southeast 377 434 25,700 1,409 Climbing Boston Center
Sun 07:51:11 PM 41.8203 -73.7019 169° South 366 421 27,400 1,539 Climbing Boston Center
Sun 07:52:43 PM 41.6608 -73.6867 176° South 367 422 29,600 1,232 Climbing New York Center
Sun 07:53:42 PM 41.5811 -73.7108 193° South 348 400 30,500 800 Climbing New York Center
Sun 07:54:43 PM 41.5022 -73.7794 213° Southwest 326 375 31,200 807 Climbing New York Center
Sun 07:55:41 PM 41.4214 -73.8503 213° Southwest 336 387 32,100 908 Climbing New York Center
Sun 07:56:42 PM 41.3403 -73.9214 213° Southwest 349 402 33,000 836 Climbing New York Center
Sun 07:57:43 PM 41.2569 -73.9975 214° Southwest 361 415 33,800 545 Climbing New York Center
Sun 07:58:43 PM 41.1739 -74.0706 214° Southwest 366 421 34,100 446 Climbing New York Center
Sun 07:59:44 PM 41.0883 -74.1433 213° Southwest 366 421 34,700 763 Climbing New York Center
Sun 08:00:41 PM 41.0008 -74.2161 212° Southwest 366 421 35,600 667 Climbing New York Center
Sun 08:01:41 PM 40.9175 -74.2914 214° Southwest 371 427 36,000 198 Climbing New York Center
Sun 08:02:42 PM 40.8319 -74.3667 214° Southwest 371 427 36,000  Level New York Center
Sun 08:03:42 PM 40.7561 -74.4556 222° Southwest 371 427 36,000  Level New York Center
Sun 08:04:43 PM 40.6967 -74.5564 232° Southwest 358 412 36,000  Level New York Center
Sun 08:05:41 PM 40.6331 -74.6597 231° Southwest 363 418 36,000  Level New York Center
Sun 08:06:42 PM 40.5692 -74.7597 230° Southwest 368 423 36,000  Level New York Center
Sun 08:07:42 PM 40.5011 -74.8622 229° Southwest 368 423 36,000  Level New York Center
Sun 08:08:43 PM 40.4311 -74.9564 226° Southwest 368 423 36,000  Level New York Center
Sun 08:09:43 PM 40.3608 -75.0556 227° Southwest 373 429 36,000  Level New York Center
Sun 08:10:44 PM 40.2925 -75.1547 228° Southwest 373 429 36,000  Level New York Center
Sun 08:11:41 PM 40.2242 -75.2536 228° Southwest 373 429 36,000  Level New York Center
Sun 08:12:42 PM 40.1539 -75.3497 226° Southwest 373 429 36,000  Level New York Center
Sun 08:13:42 PM 40.0833 -75.4508 228° Southwest 373 429 36,000  Level New York Center
Sun 08:14:43 PM 40.0125 -75.5492 227° Southwest 373 429 36,000  Level New York Center
Sun 08:15:43 PM 39.9419 -75.6472 227° Southwest 373 429 36,000  Level New York Center
Sun 08:16:41 PM 39.8644 -75.7553 227° Southwest 373 429 36,000  Level New York Center
Sun 08:17:42 PM 39.8103 -75.8489 233° Southwest 373 429 36,000  Level New York Center
Sun 08:18:42 PM 39.7453 -75.9522 231° Southwest 373 429 36,000  Level New York Center
Sun 08:19:42 PM 39.6825 -76.0528 231° Southwest 367 422 36,000  Level New York Center
Sun 08:21:11 PM 39.5808 -76.2108 230° Southwest 356 410 36,000  Level Washington Center
Sun 08:22:12 PM 39.5136 -76.3125 229° Southwest 361 415 36,000  Level Washington Center
Sun 08:23:10 PM 39.4483 -76.4111 229° Southwest 361 415 36,000  Level Washington Center
Sun 08:24:10 PM 39.3872 -76.5125 232° Southwest 361 415 36,000  Level Washington Center
Sun 08:25:11 PM 39.3239 -76.6003 227° Southwest 367 422 36,000  Level Washington Center
Sun 08:26:11 PM 39.2542 -76.7172 232° Southwest 367 422 36,000  Level Washington Center
Sun 08:27:09 PM 39.1969 -76.8022 229° Southwest 372 428 36,000  Level Washington Center
Sun 08:28:10 PM 39.1292 -76.9053 230° Southwest 372 428 36,000  Level Washington Center
Sun 08:29:09 PM 39.0656 -77.0086 232° Southwest 372 428 36,000  Level Washington Center
Sun 08:30:10 PM 38.9914 -77.0978 223° Southwest 372 428 36,000  Level Washington Center
Sun 08:31:11 PM 38.9133 -77.1817 220° Southwest 372 428 36,000  Level Washington Center
Sun 08:32:09 PM 38.8331 -77.2678 220° Southwest 372 428 36,000  Level Washington Center
Sun 08:33:09 PM 38.7525 -77.3539 220° Southwest 377 434 36,000  Level Washington Center
Sun 08:34:09 PM 38.6739 -77.4425 221° Southwest 382 440 36,000  Level Washington Center
Sun 08:35:10 PM 38.5850 -77.5386 220° Southwest 382 440 36,000  Level Washington Center
Sun 08:36:11 PM 38.5169 -77.6136 221° Southwest 372 428 36,000  Level Washington Center
Sun 08:37:11 PM 38.4425 -77.6964 221° Southwest 372 428 36,000  Level Washington Center
Sun 08:38:10 PM 38.3639 -77.7789 219° Southwest 367 422 36,000  Level Washington Center
Sun 08:39:10 PM 38.2894 -77.8589 220° Southwest 367 422 36,000  Level Washington Center
Sun 08:40:10 PM 38.2128 -77.9411 220° Southwest 367 422 36,000  Level Washington Center
Sun 08:41:11 PM 38.1383 -78.0206 220° Southwest 367 422 36,000  Level Washington Center
Sun 08:42:09 PM 38.0614 -78.1050 221° Southwest 367 422 36,000  Level Washington Center
Sun 08:43:09 PM 37.9950 -78.1844 223° Southwest 351 404 36,000  Level Washington Center
Sun 08:44:10 PM 37.9283 -78.2797 228° Southwest 351 404 36,000  Level Washington Center
Sun 08:45:10 PM 37.8569 -78.3875 230° Southwest 358 412 36,000  Level Washington Center
Sun 08:46:10 PM 37.7922 -78.4797 228° Southwest 358 412 36,000 -605 Level Washington Center
Sun 08:47:09 PM 37.7253 -78.5744 228° Southwest 363 418 34,800 -1,008 Descending Washington Center
Sun 08:48:09 PM 37.6603 -78.6689 229° Southwest 363 418 34,000 -397 Descending Washington Center
Sun 08:49:10 PM 37.5997 -78.7503 227° Southwest 358 412 34,000 -393 Level Washington Center
Sun 08:50:11 PM 37.5347 -78.8444 229° Southwest 358 412 33,200 -992 Descending Washington Center
Sun 08:51:11 PM 37.4653 -78.9383 227° Southwest 363 418 32,000 -610 Descending Washington Center
Sun 08:52:09 PM 37.3936 -79.0397 228° Southwest 370 426 32,000  Level Washington Center
Sun 08:53:09 PM 37.3242 -79.1358 228° Southwest 376 433 32,000  Level Washington Center
Sun 08:54:10 PM 37.2436 -79.2444 227° Southwest 381 438 32,000  Level Washington Center
Sun 08:55:09 PM 37.1539 -79.3158 212° Southwest 381 438 32,000 -600 Level Washington Center
Sun 08:56:10 PM 37.0703 -79.3897 215° Southwest 381 438 30,800 -1,623 Descending Washington Center
Sun 08:57:11 PM 36.9844 -79.4608 214° Southwest 376 433 28,700 -1,377 Descending Washington Center
Sun 08:58:12 PM 36.9008 -79.5269 212° Southwest 368 423 28,000 -356 Descending Washington Center
Sun 08:59:09 PM 36.8258 -79.5881 213° Southwest 363 418 28,000  Level Washington Center
Sun 09:00:10 PM 36.7464 -79.6564 215° Southwest 363 418 28,000 -393 Level Washington Center
Sun 09:01:11 PM 36.6628 -79.7244 213° Southwest 363 418 27,200 -2,017 Descending Washington Center
Sun 09:02:09 PM 36.5661 -79.8047 214° Southwest 368 423 24,000 -2,441 Descending Washington Center
Sun 09:03:09 PM 36.4800 -79.8725 212° Southwest 376 433 22,400 -1,446 Descending Washington Center
Sun 09:03:32 PM 36.4450 -79.8964 209° Southwest 378 435 22,000 -289 Descending Atlanta Center
Sun 09:04:32 PM 36.3639 -79.9625 213° Southwest 371 427 22,000  Level Atlanta Center
Sun 09:05:32 PM 36.2786 -80.0339 214° Southwest 366 421 22,000 -350 Level Atlanta Center
Sun 09:06:32 PM 36.2078 -80.0967 216° Southwest 358 412 21,300 -1,200 Descending Atlanta Center
Sun 09:07:32 PM 36.1367 -80.1567 214° Southwest 338 389 19,600 -1,750 Descending Atlanta Center
Sun 09:08:32 PM 36.0656 -80.2164 214° Southwest 326 375 17,800 -1,850 Descending Atlanta Center
Sun 09:09:32 PM 36.0006 -80.2708 214° Southwest 314 361 15,900 -2,234 Descending Atlanta Center
Sun 09:10:06 PM 35.9558 -80.3114 216° Southwest 280 322 14,300 -2,423 Descending Atlanta Center
Sun 09:10:24 PM 35.9375 -80.3303 220° Southwest 279 321 13,800 -987 Descending Atlanta Center
Sun 09:11:25 PM 35.8744 -80.3844 215° Southwest 273 314 13,000 -689 Descending Atlanta Center
Sun 09:12:26 PM 35.8136 -80.4358 214° Southwest 271 312 12,400 -984 Descending Atlanta Center
Sun 09:13:27 PM 35.7525 -80.4869 214° Southwest 262 302 11,000 -905 Descending Atlanta Center
Sun 09:14:32 PM 35.6825 -80.5208 201° Southwest 261 300 10,500 -1,172 Descending Atlanta Center
Sun 09:15:35 PM 35.6086 -80.5622 204° Southwest 255 293 8,500 -1,550 Descending Atlanta Center
Sun 09:16:32 PM 35.5469 -80.5956 204° Southwest 256 295 7,400 -1,041 Descending Atlanta Center
Sun 09:17:36 PM 35.4792 -80.6317 203° Southwest 254 292 6,400 -1,200 Descending Atlanta Center
Sun 09:18:32 PM 35.4194 -80.6647 204° Southwest 256 295 5,000 -1,241 Descending Atlanta Center
Sun 09:19:32 PM 35.3731 -80.7250 227° Southwest 249 287 4,000 -472 Descending Atlanta Center
Sun 09:20:39 PM 35.3331 -80.7828 230° Southwest 193 222 4,000 -281 Level Atlanta Center
Sun 09:21:40 PM 35.2986 -80.8297 228° Southwest 176 203 3,400 -590 Descending Atlanta Center

Login

Don't have an account? Register now (free) for customized features, flight alerts, and more!